Lexington, KY

10:17 PM EST on December 04, 2016 (GMT -0500)
The Island Weather | | Change Station

Elev 968 ft 38.00 °N, 84.46 °W | Updated 16 seconds ago

Overcast
Overcast
45.0 °F
Feels Like 45 °F
N
3.0
Wind Variable Wind from West

Today
High -- | Low -- °F
--% Chance of Precip.
Yesterday
High -- | Low -- °F
Precip. -- in
Pressure 29.94 in
Visibility 10.0 miles
Clouds Overcast 1200 ft
Windchill 45 °F
Dew Point 44 °F
Humidity 98%
Rainfall in
Snow Depth Not available.
7:38 AM 5:18 PM
Waxing Crescent, 27% visible
METAR KLEX 050254Z 24009KT 10SM OVC012 08/06 A2993 RMK AO2 RAE0158 SLP137 P0000 60002 T00780061 53007
Pressure 29.94 in
Visibility 10.0 miles
Clouds Overcast 1200 ft
Windchill 45 °F
Dew Point 44 °F
Humidity 98%
Rainfall in
Snow Depth Not available.
7:38 AM 5:18 PM
Waxing Crescent, 27% visible
METAR KLEX 050254Z 24009KT 10SM OVC012 08/06 A2993 RMK AO2 RAE0158 SLP137 P0000 60002 T00780061 53007

10-Day Weather Forecast

Almanac

Astronomy

Dec. 04, 2016 Rise Set
Actual Time
Civil Twilight
Nautical Twilight
Astronomical Twilight
Moon
Length of Visible Light
Length of Day
Tomorrow will be .
, % of the Moon is Illuminated

Today's Extremes

State Highs State Lows

Community

WunderPhotos

Upload Photos

1,955,752 photos uploaded!

WunderBlog® & News

Nearby

Air Quality

  Air Quality AQ Index Pollutant
Not available.

Snow Depth

Station Depth Elevation

Earthquake Activity

City Distance Mag. Time & Date
Minimum magnitude displayed is 2.5.

Coastal Water Temperatures

Place Temperature

Stations

Nearby Weather Stations

Station Location Temp. Windchill Dew Point Humidity Wind Precip. Elev Updated Type
                   

Watches & Warnings

There are currently no watches in effect.